sensor_id;sensor_type;location;lat;lon;timestamp;temperature;humidity
49441;DHT22;35317;51.978;6.296;2022-09-09T00:00:35;15.90;97.80
49441;DHT22;35317;51.978;6.296;2022-09-09T00:06:02;15.80;97.90
49441;DHT22;35317;51.978;6.296;2022-09-09T00:11:10;15.80;98.00
49441;DHT22;35317;51.978;6.296;2022-09-09T00:16:22;15.70;98.10
49441;DHT22;35317;51.978;6.296;2022-09-09T00:21:37;15.60;98.20
49441;DHT22;35317;51.978;6.296;2022-09-09T00:26:43;15.60;98.30
49441;DHT22;35317;51.978;6.296;2022-09-09T00:31:45;15.50;98.30
49441;DHT22;35317;51.978;6.296;2022-09-09T00:36:50;15.50;98.30
49441;DHT22;35317;51.978;6.296;2022-09-09T00:42:17;15.50;98.40
49441;DHT22;35317;51.978;6.296;2022-09-09T00:47:44;15.50;98.50
49441;DHT22;35317;51.978;6.296;2022-09-09T00:58:20;15.40;98.40
49441;DHT22;35317;51.978;6.296;2022-09-09T01:03:53;15.40;98.50
49441;DHT22;35317;51.978;6.296;2022-09-09T01:25:11;15.20;98.50
49441;DHT22;35317;51.978;6.296;2022-09-09T01:30:20;15.10;98.50
49441;DHT22;35317;51.978;6.296;2022-09-09T01:35:37;15.00;98.60
49441;DHT22;35317;51.978;6.296;2022-09-09T01:40:43;15.00;98.70
49441;DHT22;35317;51.978;6.296;2022-09-09T01:45:46;14.90;98.70
49441;DHT22;35317;51.978;6.296;2022-09-09T01:50:49;14.80;98.80
49441;DHT22;35317;51.978;6.296;2022-09-09T02:12:44;14.60;99.10
49441;DHT22;35317;51.978;6.296;2022-09-09T02:17:49;14.50;99.10
49441;DHT22;35317;51.978;6.296;2022-09-09T02:22:53;14.50;99.30
49441;DHT22;35317;51.978;6.296;2022-09-09T02:27:54;14.40;99.30
49441;DHT22;35317;51.978;6.296;2022-09-09T02:32:57;14.40;99.50
49441;DHT22;35317;51.978;6.296;2022-09-09T02:38:01;14.40;99.60
49441;DHT22;35317;51.978;6.296;2022-09-09T02:43:05;14.30;99.70
49441;DHT22;35317;51.978;6.296;2022-09-09T02:48:34;14.30;99.80
49441;DHT22;35317;51.978;6.296;2022-09-09T02:53:49;14.30;99.80
49441;DHT22;35317;51.978;6.296;2022-09-09T02:59:05;14.20;99.90
49441;DHT22;35317;51.978;6.296;2022-09-09T03:04:06;14.20;99.90
49441;DHT22;35317;51.978;6.296;2022-09-09T03:09:07;14.20;99.90
49441;DHT22;35317;51.978;6.296;2022-09-09T03:14:10;14.10;99.90
49441;DHT22;35317;51.978;6.296;2022-09-09T03:19:11;14.10;99.90
49441;DHT22;35317;51.978;6.296;2022-09-09T03:24:13;14.10;99.90
49441;DHT22;35317;51.978;6.296;2022-09-09T03:29:14;14.10;99.90
49441;DHT22;35317;51.978;6.296;2022-09-09T03:34:15;14.00;99.90
49441;DHT22;35317;51.978;6.296;2022-09-09T03:39:16;14.00;99.90
49441;DHT22;35317;51.978;6.296;2022-09-09T03:44:17;14.00;99.90
49441;DHT22;35317;51.978;6.296;2022-09-09T03:49:18;14.00;99.90
49441;DHT22;35317;51.978;6.296;2022-09-09T03:54:20;14.00;99.90
49441;DHT22;35317;51.978;6.296;2022-09-09T03:59:21;14.00;99.90
49441;DHT22;35317;51.978;6.296;2022-09-09T04:04:22;14.00;99.90
49441;DHT22;35317;51.978;6.296;2022-09-09T04:09:23;14.00;99.90
49441;DHT22;35317;51.978;6.296;2022-09-09T04:14:24;14.00;99.90
49441;DHT22;35317;51.978;6.296;2022-09-09T04:19:29;14.10;99.90
49441;DHT22;35317;51.978;6.296;2022-09-09T04:24:31;14.20;99.90
49441;DHT22;35317;51.978;6.296;2022-09-09T04:29:32;14.20;99.90
49441;DHT22;35317;51.978;6.296;2022-09-09T04:34:33;14.30;99.90
49441;DHT22;35317;51.978;6.296;2022-09-09T04:39:34;14.30;99.90
49441;DHT22;35317;51.978;6.296;2022-09-09T04:44:47;14.40;99.90
49441;DHT22;35317;51.978;6.296;2022-09-09T04:49:48;14.40;99.90
49441;DHT22;35317;51.978;6.296;2022-09-09T04:54:49;14.50;99.90
49441;DHT22;35317;51.978;6.296;2022-09-09T04:59:49;14.60;99.90
49441;DHT22;35317;51.978;6.296;2022-09-09T05:04:50;14.60;99.90
49441;DHT22;35317;51.978;6.296;2022-09-09T05:09:51;14.70;99.90
49441;DHT22;35317;51.978;6.296;2022-09-09T05:14:52;14.80;99.90
49441;DHT22;35317;51.978;6.296;2022-09-09T05:19:53;14.90;99.90
49441;DHT22;35317;51.978;6.296;2022-09-09T05:24:54;15.00;99.90
49441;DHT22;35317;51.978;6.296;2022-09-09T05:29:54;15.10;99.90
49441;DHT22;35317;51.978;6.296;2022-09-09T05:34:55;15.20;99.90
49441;DHT22;35317;51.978;6.296;2022-09-09T05:39:57;15.30;99.90
49441;DHT22;35317;51.978;6.296;2022-09-09T05:44:58;15.30;99.90
49441;DHT22;35317;51.978;6.296;2022-09-09T05:49:59;15.30;99.90
49441;DHT22;35317;51.978;6.296;2022-09-09T05:54:59;15.30;99.90
49441;DHT22;35317;51.978;6.296;2022-09-09T06:00:00;15.30;99.90
49441;DHT22;35317;51.978;6.296;2022-09-09T06:05:01;15.40;99.90
49441;DHT22;35317;51.978;6.296;2022-09-09T06:10:02;15.40;99.90
49441;DHT22;35317;51.978;6.296;2022-09-09T06:15:03;15.50;99.90
49441;DHT22;35317;51.978;6.296;2022-09-09T06:20:06;15.60;99.90
49441;DHT22;35317;51.978;6.296;2022-09-09T06:25:08;15.60;99.90
49441;DHT22;35317;51.978;6.296;2022-09-09T06:30:10;15.70;99.90
49441;DHT22;35317;51.978;6.296;2022-09-09T06:35:11;15.80;99.90
49441;DHT22;35317;51.978;6.296;2022-09-09T06:40:13;15.80;99.90
49441;DHT22;35317;51.978;6.296;2022-09-09T06:45:16;16.00;99.90
49441;DHT22;35317;51.978;6.296;2022-09-09T06:50:17;16.20;99.90
49441;DHT22;35317;51.978;6.296;2022-09-09T06:55:18;16.40;99.90
49441;DHT22;35317;51.978;6.296;2022-09-09T07:00:19;16.60;99.90
49441;DHT22;35317;51.978;6.296;2022-09-09T07:05:20;16.80;99.90
49441;DHT22;35317;51.978;6.296;2022-09-09T07:10:21;16.90;99.90
49441;DHT22;35317;51.978;6.296;2022-09-09T07:15:22;17.00;99.90
49441;DHT22;35317;51.978;6.296;2022-09-09T07:20:23;17.10;99.60
49441;DHT22;35317;51.978;6.296;2022-09-09T07:25:24;17.30;99.40
49441;DHT22;35317;51.978;6.296;2022-09-09T07:30:27;17.40;99.30
49441;DHT22;35317;51.978;6.296;2022-09-09T07:35:28;17.60;98.80
49441;DHT22;35317;51.978;6.296;2022-09-09T07:40:29;17.70;98.30
49441;DHT22;35317;51.978;6.296;2022-09-09T07:45:30;17.70;98.00
49441;DHT22;35317;51.978;6.296;2022-09-09T07:50:32;17.80;97.60
49441;DHT22;35317;51.978;6.296;2022-09-09T07:55:33;17.90;97.00
49441;DHT22;35317;51.978;6.296;2022-09-09T08:00:34;18.00;96.60
49441;DHT22;35317;51.978;6.296;2022-09-09T08:05:35;18.10;96.40
49441;DHT22;35317;51.978;6.296;2022-09-09T08:10:35;18.20;96.00
49441;DHT22;35317;51.978;6.296;2022-09-09T08:15:36;18.40;95.70
49441;DHT22;35317;51.978;6.296;2022-09-09T08:20:37;18.50;95.00
49441;DHT22;35317;51.978;6.296;2022-09-09T08:25:38;18.60;94.60
49441;DHT22;35317;51.978;6.296;2022-09-09T08:30:38;18.80;94.00
49441;DHT22;35317;51.978;6.296;2022-09-09T08:35:39;18.90;93.40
49441;DHT22;35317;51.978;6.296;2022-09-09T08:40:53;18.90;92.60
49441;DHT22;35317;51.978;6.296;2022-09-09T08:46:10;19.00;92.20
49441;DHT22;35317;51.978;6.296;2022-09-09T08:51:14;19.20;91.70
49441;DHT22;35317;51.978;6.296;2022-09-09T08:56:24;19.30;91.10
49441;DHT22;35317;51.978;6.296;2022-09-09T09:01:36;19.50;90.40
49441;DHT22;35317;51.978;6.296;2022-09-09T09:12:43;19.90;88.20
49441;DHT22;35317;51.978;6.296;2022-09-09T09:17:45;19.90;87.30
49441;DHT22;35317;51.978;6.296;2022-09-09T09:22:51;20.00;87.10
49441;DHT22;35317;51.978;6.296;2022-09-09T09:33:22;20.10;85.60
49441;DHT22;35317;51.978;6.296;2022-09-09T09:38:33;20.00;85.80
49441;DHT22;35317;51.978;6.296;2022-09-09T09:43:40;20.10;85.90
49441;DHT22;35317;51.978;6.296;2022-09-09T09:48:41;20.10;85.80
49441;DHT22;35317;51.978;6.296;2022-09-09T09:53:42;20.10;85.40
49441;DHT22;35317;51.978;6.296;2022-09-09T10:03:51;20.30;84.00
49441;DHT22;35317;51.978;6.296;2022-09-09T10:08:52;20.30;82.00
49441;DHT22;35317;51.978;6.296;2022-09-09T10:19:29;20.50;81.90
49441;DHT22;35317;51.978;6.296;2022-09-09T10:30:27;20.60;80.10
49441;DHT22;35317;51.978;6.296;2022-09-09T10:41:00;20.90;78.70
49441;DHT22;35317;51.978;6.296;2022-09-09T10:52:04;20.90;78.20
49441;DHT22;35317;51.978;6.296;2022-09-09T11:02:36;21.10;75.80
49441;DHT22;35317;51.978;6.296;2022-09-09T11:07:44;21.10;76.30
49441;DHT22;35317;51.978;6.296;2022-09-09T11:12:49;21.10;76.30
49441;DHT22;35317;51.978;6.296;2022-09-09T11:17:55;21.10;75.70
49441;DHT22;35317;51.978;6.296;2022-09-09T11:23:09;20.80;76.00
49441;DHT22;35317;51.978;6.296;2022-09-09T11:34:21;20.80;76.80
49441;DHT22;35317;51.978;6.296;2022-09-09T11:45:26;21.10;75.80
49441;DHT22;35317;51.978;6.296;2022-09-09T11:50:34;21.10;75.40
49441;DHT22;35317;51.978;6.296;2022-09-09T11:55:36;21.00;75.70
49441;DHT22;35317;51.978;6.296;2022-09-09T12:00:43;20.90;75.90
49441;DHT22;35317;51.978;6.296;2022-09-09T12:05:50;20.60;77.10
49441;DHT22;35317;51.978;6.296;2022-09-09T12:10:56;20.40;78.90
49441;DHT22;35317;51.978;6.296;2022-09-09T12:16:00;20.00;80.60
49441;DHT22;35317;51.978;6.296;2022-09-09T12:26:40;19.70;84.20
49441;DHT22;35317;51.978;6.296;2022-09-09T12:31:54;19.70;85.30
49441;DHT22;35317;51.978;6.296;2022-09-09T12:37:15;19.70;86.70
49441;DHT22;35317;51.978;6.296;2022-09-09T12:42:22;19.80;87.00
49441;DHT22;35317;51.978;6.296;2022-09-09T12:47:33;19.80;87.10
49441;DHT22;35317;51.978;6.296;2022-09-09T12:52:57;19.70;88.10
49441;DHT22;35317;51.978;6.296;2022-09-09T12:58:01;19.60;89.30
49441;DHT22;35317;51.978;6.296;2022-09-09T13:03:16;19.40;90.60
49441;DHT22;35317;51.978;6.296;2022-09-09T13:08:18;19.50;91.60
49441;DHT22;35317;51.978;6.296;2022-09-09T13:13:28;20.00;91.80
49441;DHT22;35317;51.978;6.296;2022-09-09T13:18:41;20.30;91.00
49441;DHT22;35317;51.978;6.296;2022-09-09T13:23:49;20.60;90.40
49441;DHT22;35317;51.978;6.296;2022-09-09T13:28:55;20.80;89.90
49441;DHT22;35317;51.978;6.296;2022-09-09T13:34:28;20.90;87.40
49441;DHT22;35317;51.978;6.296;2022-09-09T13:39:30;20.70;86.70
49441;DHT22;35317;51.978;6.296;2022-09-09T13:44:36;20.70;86.80
49441;DHT22;35317;51.978;6.296;2022-09-09T13:49:40;20.70;87.10
49441;DHT22;35317;51.978;6.296;2022-09-09T13:54:41;21.10;87.50
49441;DHT22;35317;51.978;6.296;2022-09-09T13:59:42;21.20;85.70
49441;DHT22;35317;51.978;6.296;2022-09-09T14:04:43;21.20;84.90
49441;DHT22;35317;51.978;6.296;2022-09-09T14:09:44;21.10;84.60
49441;DHT22;35317;51.978;6.296;2022-09-09T14:14:50;21.20;85.00
49441;DHT22;35317;51.978;6.296;2022-09-09T14:19:51;21.20;83.60
49441;DHT22;35317;51.978;6.296;2022-09-09T14:24:52;21.20;83.20
49441;DHT22;35317;51.978;6.296;2022-09-09T14:29:53;21.10;82.40
49441;DHT22;35317;51.978;6.296;2022-09-09T14:34:54;20.90;84.10
49441;DHT22;35317;51.978;6.296;2022-09-09T14:39:55;20.50;85.10
49441;DHT22;35317;51.978;6.296;2022-09-09T14:44:56;20.30;86.20
49441;DHT22;35317;51.978;6.296;2022-09-09T14:49:57;20.10;87.30
49441;DHT22;35317;51.978;6.296;2022-09-09T14:54:57;20.10;88.40
49441;DHT22;35317;51.978;6.296;2022-09-09T14:59:58;20.10;89.00
49441;DHT22;35317;51.978;6.296;2022-09-09T15:04:59;20.20;89.60
49441;DHT22;35317;51.978;6.296;2022-09-09T15:10:02;20.20;90.20
49441;DHT22;35317;51.978;6.296;2022-09-09T15:15:04;20.40;90.10
49441;DHT22;35317;51.978;6.296;2022-09-09T15:20:05;20.70;90.00
49441;DHT22;35317;51.978;6.296;2022-09-09T15:25:07;20.90;89.70
49441;DHT22;35317;51.978;6.296;2022-09-09T15:30:08;21.10;88.30
49441;DHT22;35317;51.978;6.296;2022-09-09T15:35:10;21.30;87.90
49441;DHT22;35317;51.978;6.296;2022-09-09T15:40:11;21.40;87.20
49441;DHT22;35317;51.978;6.296;2022-09-09T15:45:11;21.40;85.90
49441;DHT22;35317;51.978;6.296;2022-09-09T15:50:13;21.30;85.70
49441;DHT22;35317;51.978;6.296;2022-09-09T15:55:14;21.20;85.50
49441;DHT22;35317;51.978;6.296;2022-09-09T16:00:15;21.10;85.50
49441;DHT22;35317;51.978;6.296;2022-09-09T16:05:16;21.10;86.10
49441;DHT22;35317;51.978;6.296;2022-09-09T16:10:17;21.00;85.10
49441;DHT22;35317;51.978;6.296;2022-09-09T16:15:18;20.90;85.30
49441;DHT22;35317;51.978;6.296;2022-09-09T16:20:22;20.80;85.40
49441;DHT22;35317;51.978;6.296;2022-09-09T16:25:23;20.80;85.10
49441;DHT22;35317;51.978;6.296;2022-09-09T16:30:24;20.60;85.40
49441;DHT22;35317;51.978;6.296;2022-09-09T16:35:25;20.50;85.70
49441;DHT22;35317;51.978;6.296;2022-09-09T16:40:28;20.30;86.20
49441;DHT22;35317;51.978;6.296;2022-09-09T16:45:29;20.20;86.40
49441;DHT22;35317;51.978;6.296;2022-09-09T16:50:30;20.10;87.00
49441;DHT22;35317;51.978;6.296;2022-09-09T16:55:32;20.00;87.90
49441;DHT22;35317;51.978;6.296;2022-09-09T17:00:33;20.00;88.50
49441;DHT22;35317;51.978;6.296;2022-09-09T17:05:39;19.80;90.30
49441;DHT22;35317;51.978;6.296;2022-09-09T17:10:41;19.20;91.30
49441;DHT22;35317;51.978;6.296;2022-09-09T17:15:42;18.50;92.10
49441;DHT22;35317;51.978;6.296;2022-09-09T17:20:43;18.10;93.00
49441;DHT22;35317;51.978;6.296;2022-09-09T17:25:44;17.90;93.60
49441;DHT22;35317;51.978;6.296;2022-09-09T17:31:11;17.70;94.30
49441;DHT22;35317;51.978;6.296;2022-09-09T17:36:24;17.60;95.10
49441;DHT22;35317;51.978;6.296;2022-09-09T17:41:32;17.40;95.70
49441;DHT22;35317;51.978;6.296;2022-09-09T17:46:38;17.40;96.30
49441;DHT22;35317;51.978;6.296;2022-09-09T17:51:46;17.30;96.70
49441;DHT22;35317;51.978;6.296;2022-09-09T17:56:48;17.20;97.20
49441;DHT22;35317;51.978;6.296;2022-09-09T18:01:52;17.10;97.50
49441;DHT22;35317;51.978;6.296;2022-09-09T18:06:57;17.00;97.80
49441;DHT22;35317;51.978;6.296;2022-09-09T18:11:58;16.90;97.90
49441;DHT22;35317;51.978;6.296;2022-09-09T18:17:01;16.80;98.10
49441;DHT22;35317;51.978;6.296;2022-09-09T18:22:04;16.70;98.30
49441;DHT22;35317;51.978;6.296;2022-09-09T18:27:06;16.60;98.50
49441;DHT22;35317;51.978;6.296;2022-09-09T18:32:06;16.50;98.60
49441;DHT22;35317;51.978;6.296;2022-09-09T18:37:07;16.30;98.80
49441;DHT22;35317;51.978;6.296;2022-09-09T18:42:09;16.20;99.00
49441;DHT22;35317;51.978;6.296;2022-09-09T18:47:12;16.10;99.10
49441;DHT22;35317;51.978;6.296;2022-09-09T18:52:13;16.00;99.20
49441;DHT22;35317;51.978;6.296;2022-09-09T18:57:14;16.00;99.50
49441;DHT22;35317;51.978;6.296;2022-09-09T19:02:15;15.90;99.70
49441;DHT22;35317;51.978;6.296;2022-09-09T19:07:16;15.90;99.80
49441;DHT22;35317;51.978;6.296;2022-09-09T19:12:18;15.90;99.90
49441;DHT22;35317;51.978;6.296;2022-09-09T19:17:19;15.80;99.90
49441;DHT22;35317;51.978;6.296;2022-09-09T19:22:20;15.80;99.90
49441;DHT22;35317;51.978;6.296;2022-09-09T19:27:21;15.80;99.90
49441;DHT22;35317;51.978;6.296;2022-09-09T19:32:22;15.80;99.90
49441;DHT22;35317;51.978;6.296;2022-09-09T19:37:23;15.70;99.90
49441;DHT22;35317;51.978;6.296;2022-09-09T19:42:24;15.70;99.90
49441;DHT22;35317;51.978;6.296;2022-09-09T19:47:25;15.70;99.90
49441;DHT22;35317;51.978;6.296;2022-09-09T19:52:26;15.70;99.90
49441;DHT22;35317;51.978;6.296;2022-09-09T19:57:27;15.70;99.90
49441;DHT22;35317;51.978;6.296;2022-09-09T20:02:30;15.70;99.90
49441;DHT22;35317;51.978;6.296;2022-09-09T20:07:30;15.60;99.90
49441;DHT22;35317;51.978;6.296;2022-09-09T20:12:32;15.60;99.90
49441;DHT22;35317;51.978;6.296;2022-09-09T20:17:33;15.60;99.90
49441;DHT22;35317;51.978;6.296;2022-09-09T20:22:34;15.60;99.90
49441;DHT22;35317;51.978;6.296;2022-09-09T20:27:35;15.60;99.90
49441;DHT22;35317;51.978;6.296;2022-09-09T20:32:36;15.50;99.90
49441;DHT22;35317;51.978;6.296;2022-09-09T20:37:39;15.40;99.90
49441;DHT22;35317;51.978;6.296;2022-09-09T20:42:40;15.40;99.90
49441;DHT22;35317;51.978;6.296;2022-09-09T20:47:41;15.30;99.90
49441;DHT22;35317;51.978;6.296;2022-09-09T20:52:41;15.30;99.90
49441;DHT22;35317;51.978;6.296;2022-09-09T20:57:42;15.30;99.90
49441;DHT22;35317;51.978;6.296;2022-09-09T21:02:43;15.30;99.90
49441;DHT22;35317;51.978;6.296;2022-09-09T21:07:43;15.30;99.90
49441;DHT22;35317;51.978;6.296;2022-09-09T21:12:45;15.30;99.90
49441;DHT22;35317;51.978;6.296;2022-09-09T21:17:46;15.30;99.90
49441;DHT22;35317;51.978;6.296;2022-09-09T21:22:47;15.20;99.90
49441;DHT22;35317;51.978;6.296;2022-09-09T21:27:47;15.20;99.90
49441;DHT22;35317;51.978;6.296;2022-09-09T21:32:48;15.20;99.90
49441;DHT22;35317;51.978;6.296;2022-09-09T21:37:49;15.20;99.90
49441;DHT22;35317;51.978;6.296;2022-09-09T21:42:49;15.10;99.90
49441;DHT22;35317;51.978;6.296;2022-09-09T21:47:50;15.10;99.90
49441;DHT22;35317;51.978;6.296;2022-09-09T21:52:51;15.10;99.90
49441;DHT22;35317;51.978;6.296;2022-09-09T21:57:52;15.10;99.90
49441;DHT22;35317;51.978;6.296;2022-09-09T22:02:54;15.00;99.90
49441;DHT22;35317;51.978;6.296;2022-09-09T22:08:15;15.00;99.90
49441;DHT22;35317;51.978;6.296;2022-09-09T22:13:18;15.00;99.90
49441;DHT22;35317;51.978;6.296;2022-09-09T22:18:39;15.00;99.90
49441;DHT22;35317;51.978;6.296;2022-09-09T22:23:41;15.00;99.90
49441;DHT22;35317;51.978;6.296;2022-09-09T22:28:43;15.10;99.90
49441;DHT22;35317;51.978;6.296;2022-09-09T22:33:44;15.10;99.90
49441;DHT22;35317;51.978;6.296;2022-09-09T22:39:04;15.10;99.90
49441;DHT22;35317;51.978;6.296;2022-09-09T22:44:07;15.10;99.90
49441;DHT22;35317;51.978;6.296;2022-09-09T22:49:09;15.10;99.90
49441;DHT22;35317;51.978;6.296;2022-09-09T22:54:10;15.10;99.90
49441;DHT22;35317;51.978;6.296;2022-09-09T22:59:11;15.10;99.90
49441;DHT22;35317;51.978;6.296;2022-09-09T23:04:12;15.10;99.90
49441;DHT22;35317;51.978;6.296;2022-09-09T23:09:13;15.10;99.90
49441;DHT22;35317;51.978;6.296;2022-09-09T23:14:14;15.10;99.90
49441;DHT22;35317;51.978;6.296;2022-09-09T23:19:15;15.10;99.90
49441;DHT22;35317;51.978;6.296;2022-09-09T23:24:16;15.20;99.90
49441;DHT22;35317;51.978;6.296;2022-09-09T23:29:18;15.20;99.90
49441;DHT22;35317;51.978;6.296;2022-09-09T23:34:19;15.30;99.90
49441;DHT22;35317;51.978;6.296;2022-09-09T23:39:19;15.40;99.90
49441;DHT22;35317;51.978;6.296;2022-09-09T23:44:22;15.40;99.90
49441;DHT22;35317;51.978;6.296;2022-09-09T23:49:23;15.50;99.90
49441;DHT22;35317;51.978;6.296;2022-09-09T23:54:26;15.50;99.90
49441;DHT22;35317;51.978;6.296;2022-09-09T23:59:26;15.50;99.90
